Terminal Aerodrome Forecast
Issued by NWS

Home | Current Version | Previous Version | Text Only | Print | Product List | Glossary On
Versions: 1 2 3 4 5 6 7 8 9 10 11 12 13
000
FTUS43 KSGF 311100
TAFBBG
TAF
KBBG 311133Z 3112/0112 13007KT P6SM OVC070
     FM010600 16007KT 6SM -SHRA BR SCT020 OVC050
     FM010900 18007KT 3SM -RA BR OVC015=

USA.gov is the U.S. government's official web portal to all federal, state and local government web resources and services.